createdAt,value
2022-08-28T00:01:03.128Z,15.94
2022-08-28T00:03:32.263Z,15.95
2022-08-28T00:06:00.991Z,15.96
2022-08-28T00:08:30.436Z,15.95
2022-08-28T00:10:58.719Z,15.92
2022-08-28T00:13:30.091Z,15.90
2022-08-28T00:16:01.738Z,15.87
2022-08-28T00:18:31.873Z,15.86
2022-08-28T00:21:01.625Z,15.84
2022-08-28T00:23:40.288Z,15.87
2022-08-28T00:26:32.494Z,15.83
2022-08-28T00:29:01.134Z,15.80
2022-08-28T00:31:29.377Z,15.78
2022-08-28T00:33:57.532Z,15.75
2022-08-28T00:36:26.094Z,15.71
2022-08-28T00:38:54.188Z,15.71
2022-08-28T00:41:24.931Z,15.69
2022-08-28T00:44:14.681Z,15.64
2022-08-28T00:46:45.472Z,15.62
2022-08-28T00:49:21.924Z,15.57
2022-08-28T00:52:08.160Z,15.54
2022-08-28T00:54:39.867Z,15.49
2022-08-28T00:57:14.801Z,15.47
2022-08-28T00:59:44.313Z,15.44
2022-08-28T01:02:17.219Z,15.42
2022-08-28T01:04:46.229Z,15.42
2022-08-28T01:07:15.579Z,15.43
2022-08-28T01:09:47.750Z,15.40
2022-08-28T01:12:20.973Z,15.39
2022-08-28T01:14:54.584Z,15.37
2022-08-28T01:17:25.335Z,15.33
2022-08-28T01:19:58.288Z,15.31
2022-08-28T01:22:38.186Z,15.26
2022-08-28T01:25:11.379Z,15.24
2022-08-28T01:27:41.895Z,15.20
2022-08-28T01:30:12.386Z,15.16
2022-08-28T01:32:44.237Z,15.14
2022-08-28T01:35:15.994Z,15.12
2022-08-28T01:37:44.437Z,15.13
2022-08-28T01:40:20.340Z,15.13
2022-08-28T01:42:48.549Z,15.13
2022-08-28T01:45:20.561Z,15.11
2022-08-28T01:47:51.363Z,15.07
2022-08-28T01:50:22.192Z,15.05
2022-08-28T01:52:50.401Z,15.02
2022-08-28T01:55:20.544Z,15.00
2022-08-28T01:57:54.999Z,14.98
2022-08-28T02:00:27.620Z,14.94
2022-08-28T02:02:58.222Z,14.91
2022-08-28T02:05:29.814Z,14.87
2022-08-28T02:07:58.880Z,14.84
2022-08-28T02:10:31.167Z,14.79
2022-08-28T02:13:00.896Z,14.78
2022-08-28T02:15:31.295Z,14.80
2022-08-28T02:18:00.867Z,14.80
2022-08-28T02:20:30.042Z,14.84
2022-08-28T02:22:59.471Z,14.87
2022-08-28T02:25:30.057Z,14.92
2022-08-28T02:27:58.855Z,14.94
2022-08-28T02:30:27.446Z,14.94
2022-08-28T02:32:55.674Z,14.91
2022-08-28T02:35:24.959Z,14.88
2022-08-28T02:37:55.519Z,14.84
2022-08-28T02:40:26.218Z,14.80
2022-08-28T02:42:55.718Z,14.77
2022-08-28T02:45:23.948Z,14.75
2022-08-28T02:47:54.127Z,14.73
2022-08-28T02:50:22.605Z,14.72
2022-08-28T02:52:51.550Z,14.73
2022-08-28T02:55:21.724Z,14.72
2022-08-28T02:57:50.216Z,14.70
2022-08-28T03:00:24.207Z,14.66
2022-08-28T03:02:53.639Z,14.63
2022-08-28T03:05:25.153Z,14.58
2022-08-28T03:07:54.697Z,14.53
2022-08-28T03:10:26.304Z,14.52
2022-08-28T03:12:54.453Z,14.50
2022-08-28T03:15:25.783Z,14.47
2022-08-28T03:17:54.677Z,14.46
2022-08-28T03:20:22.967Z,14.43
2022-08-28T03:23:08.567Z,14.43
2022-08-28T03:25:36.776Z,14.38
2022-08-28T03:28:05.235Z,14.35
2022-08-28T03:30:34.873Z,14.32
2022-08-28T03:33:03.216Z,14.30
2022-08-28T03:35:31.708Z,14.26
2022-08-28T03:37:59.986Z,14.26
2022-08-28T03:40:28.256Z,14.25
2022-08-28T03:42:56.673Z,14.24
2022-08-28T03:45:25.037Z,14.23
2022-08-28T03:47:55.236Z,14.22
2022-08-28T03:50:23.581Z,14.27
2022-08-28T03:52:52.849Z,14.34
2022-08-28T03:55:24.870Z,14.43
2022-08-28T03:57:53.169Z,14.47
2022-08-28T04:00:21.422Z,14.43
2022-08-28T04:02:49.465Z,14.37
2022-08-28T04:05:19.163Z,14.32
2022-08-28T04:07:47.426Z,14.28
2022-08-28T04:10:15.757Z,14.24
2022-08-28T04:12:44.681Z,14.19
2022-08-28T04:15:15.164Z,14.17
2022-08-28T04:17:43.336Z,14.14
2022-08-28T04:20:12.381Z,14.14
2022-08-28T04:22:41.876Z,14.18
2022-08-28T04:25:10.670Z,14.26
2022-08-28T04:27:38.903Z,14.34
2022-08-28T04:30:10.848Z,14.36
2022-08-28T04:32:40.041Z,14.35
2022-08-28T04:35:12.015Z,14.30
2022-08-28T04:37:43.745Z,14.27
2022-08-28T04:40:14.887Z,14.27
2022-08-28T04:42:44.957Z,14.26
2022-08-28T04:45:13.573Z,14.31
2022-08-28T04:47:41.719Z,14.41
2022-08-28T04:50:12.086Z,14.53
2022-08-28T04:52:43.179Z,14.62
2022-08-28T04:55:12.258Z,14.68
2022-08-28T04:57:40.391Z,14.73
2022-08-28T05:00:11.879Z,14.71
2022-08-28T05:02:40.040Z,14.65
2022-08-28T05:05:09.183Z,14.63
2022-08-28T05:07:37.294Z,14.60
2022-08-28T05:10:07.787Z,14.58
2022-08-28T05:12:37.335Z,14.57
2022-08-28T05:15:07.015Z,14.56
2022-08-28T05:17:35.238Z,14.55
2022-08-28T05:20:05.826Z,14.56
2022-08-28T05:22:34.347Z,14.57
2022-08-28T05:25:02.885Z,14.60
2022-08-28T05:27:32.357Z,14.64
2022-08-28T05:30:02.209Z,14.72
2022-08-28T05:32:30.553Z,14.89
2022-08-28T05:34:58.727Z,15.10
2022-08-28T05:37:27.681Z,15.27
2022-08-28T05:39:55.800Z,15.35
2022-08-28T05:42:23.974Z,15.41
2022-08-28T05:45:00.205Z,15.46
2022-08-28T05:47:32.625Z,15.51
2022-08-28T05:50:01.296Z,15.60
2022-08-28T05:52:29.857Z,15.74
2022-08-28T05:54:58.538Z,15.93
2022-08-28T05:57:26.628Z,16.09
2022-08-28T05:59:54.714Z,16.24
2022-08-28T06:02:24.228Z,16.40
2022-08-28T06:04:53.642Z,16.51
2022-08-28T06:07:22.099Z,16.56
2022-08-28T06:09:50.225Z,16.61
2022-08-28T06:12:18.358Z,16.60
2022-08-28T06:14:46.463Z,16.59
2022-08-28T06:17:15.092Z,16.60
2022-08-28T06:19:44.518Z,16.66
2022-08-28T06:22:14.783Z,16.75
2022-08-28T06:24:43.471Z,16.83
2022-08-28T06:27:11.594Z,16.92
2022-08-28T06:29:40.222Z,17.00
2022-08-28T06:32:09.047Z,17.11
2022-08-28T06:34:37.365Z,17.21
2022-08-28T06:37:07.935Z,17.30
2022-08-28T06:39:36.068Z,17.41
2022-08-28T06:42:05.436Z,17.51
2022-08-28T06:44:33.695Z,17.62
2022-08-28T06:47:03.055Z,17.71
2022-08-28T06:49:31.184Z,17.82
2022-08-28T06:51:59.935Z,17.93
2022-08-28T06:54:30.987Z,18.04
2022-08-28T06:56:59.169Z,18.13
2022-08-28T06:59:27.375Z,18.25
2022-08-28T07:01:55.713Z,18.36
2022-08-28T07:04:24.524Z,18.45
2022-08-28T07:06:54.483Z,18.53
2022-08-28T07:09:24.237Z,18.63
2022-08-28T07:11:54.002Z,18.74
2022-08-28T07:14:22.689Z,18.88
2022-08-28T07:16:53.895Z,19.03
2022-08-28T07:19:22.048Z,19.14
2022-08-28T07:21:50.188Z,19.26
2022-08-28T07:24:19.291Z,19.35
2022-08-28T07:26:50.053Z,19.50
2022-08-28T07:29:21.341Z,19.62
2022-08-28T07:31:53.400Z,19.80
2022-08-28T07:34:26.966Z,20.00
2022-08-28T07:36:56.210Z,20.11
2022-08-28T07:39:24.330Z,20.24
2022-08-28T07:41:52.454Z,20.46
2022-08-28T07:44:39.700Z,20.68
2022-08-28T07:47:11.643Z,20.73
2022-08-28T07:49:41.494Z,20.74
2022-08-28T07:52:11.937Z,20.79
2022-08-28T07:54:41.104Z,20.86
2022-08-28T07:57:17.630Z,20.97
2022-08-28T07:59:47.479Z,21.15
2022-08-28T08:02:16.724Z,21.31
2022-08-28T08:04:44.939Z,21.42
2022-08-28T08:07:17.817Z,21.45
2022-08-28T08:09:47.115Z,21.28
2022-08-28T08:12:18.303Z,21.09
2022-08-28T08:14:49.515Z,21.04
2022-08-28T08:17:17.699Z,20.98
2022-08-28T08:19:45.777Z,20.99
2022-08-28T08:22:14.112Z,21.07
2022-08-28T08:24:42.785Z,21.21
2022-08-28T08:27:11.520Z,21.36
2022-08-28T08:29:39.872Z,21.52
2022-08-28T08:32:12.225Z,21.64
2022-08-28T08:34:45.742Z,21.70
2022-08-28T08:37:14.438Z,21.69
2022-08-28T08:39:44.570Z,21.81
2022-08-28T08:42:25.031Z,21.99
2022-08-28T08:44:55.678Z,22.15
2022-08-28T08:47:37.370Z,22.17
2022-08-28T08:50:11.042Z,22.16
2022-08-28T08:52:51.421Z,22.22
2022-08-28T08:55:27.595Z,22.43
2022-08-28T08:58:04.733Z,22.68
2022-08-28T09:00:39.271Z,22.86
2022-08-28T09:03:15.498Z,23.00
2022-08-28T09:05:53.322Z,23.24
2022-08-28T09:08:32.274Z,23.38
2022-08-28T09:11:08.352Z,23.57
2022-08-28T09:13:49.593Z,23.64
2022-08-28T09:16:29.123Z,23.56
2022-08-28T09:19:01.662Z,23.44
2022-08-28T09:21:37.961Z,23.23
2022-08-28T09:24:13.570Z,22.95
2022-08-28T09:26:41.757Z,22.62
2022-08-28T09:29:28.829Z,22.29
2022-08-28T09:31:57.732Z,22.33
2022-08-28T09:34:36.705Z,22.44
2022-08-28T09:37:09.616Z,22.71
2022-08-28T09:39:45.553Z,23.05
2022-08-28T09:42:40.918Z,23.55
2022-08-28T09:45:18.705Z,23.85
2022-08-28T09:47:50.719Z,23.79
2022-08-28T09:50:33.065Z,23.47
2022-08-28T09:53:17.639Z,23.16
2022-08-28T09:56:12.225Z,22.82
2022-08-28T09:58:44.942Z,22.52
2022-08-28T10:01:45.000Z,22.27
2022-08-28T10:04:33.291Z,22.32
2022-08-28T10:07:08.110Z,22.57
2022-08-28T10:09:46.807Z,22.79
2022-08-28T10:12:34.603Z,22.87
2022-08-28T10:15:11.821Z,22.96
2022-08-28T10:18:01.661Z,23.15
2022-08-28T10:20:45.350Z,23.36
2022-08-28T10:23:24.696Z,23.64
2022-08-28T10:26:12.968Z,23.92
2022-08-28T10:28:53.278Z,24.34
2022-08-28T10:31:31.690Z,24.34
2022-08-28T10:34:16.601Z,23.94
2022-08-28T10:36:55.908Z,23.68
2022-08-28T10:39:38.809Z,23.85
2022-08-28T10:42:08.522Z,23.91
2022-08-28T10:44:45.673Z,23.51
2022-08-28T10:47:14.742Z,23.38
2022-08-28T10:49:45.761Z,23.58
2022-08-28T10:52:20.378Z,23.92
2022-08-28T10:54:55.376Z,23.94
2022-08-28T10:57:37.307Z,23.78
2022-08-28T11:00:14.285Z,23.82
2022-08-28T11:02:46.421Z,23.90
2022-08-28T11:05:15.759Z,23.87
2022-08-28T11:07:49.550Z,23.99
2022-08-28T11:10:43.888Z,24.43
2022-08-28T11:13:13.067Z,24.56
2022-08-28T11:15:54.352Z,24.59
2022-08-28T11:19:03.546Z,24.41
2022-08-28T11:21:37.969Z,24.14
2022-08-28T11:24:12.114Z,24.17
2022-08-28T11:26:59.106Z,24.26
2022-08-28T11:30:07.388Z,24.38
2022-08-28T11:32:59.831Z,24.51
2022-08-28T11:35:44.519Z,24.69
2022-08-28T11:38:16.445Z,24.76
2022-08-28T11:40:58.003Z,24.56
2022-08-28T11:43:37.421Z,24.15
2022-08-28T11:46:29.611Z,24.35
2022-08-28T11:49:00.728Z,24.70
2022-08-28T11:52:03.119Z,24.66
2022-08-28T11:54:48.351Z,25.09
2022-08-28T11:57:21.088Z,25.76
2022-08-28T12:00:10.501Z,25.68
2022-08-28T12:02:56.697Z,25.23
2022-08-28T12:05:51.760Z,24.87
2022-08-28T12:09:13.675Z,24.73
2022-08-28T12:12:01.440Z,25.22
2022-08-28T12:15:17.382Z,25.94
2022-08-28T12:17:50.260Z,26.70
2022-08-28T12:20:29.847Z,26.98
2022-08-28T12:23:00.818Z,26.46
2022-08-28T12:25:37.417Z,26.02
2022-08-28T12:28:20.110Z,26.64
2022-08-28T12:30:57.987Z,26.96
2022-08-28T12:33:36.263Z,26.68
2022-08-28T12:36:07.748Z,26.80
2022-08-28T12:38:36.266Z,27.61
2022-08-28T12:41:04.578Z,27.98
2022-08-28T12:43:41.603Z,28.05
2022-08-28T12:46:28.570Z,28.63
2022-08-28T12:48:59.693Z,28.80
2022-08-28T12:51:34.414Z,29.02
2022-08-28T12:54:06.357Z,29.10
2022-08-28T12:56:37.703Z,28.84
2022-08-28T12:59:27.156Z,28.30
2022-08-28T13:02:04.092Z,28.50
2022-08-28T13:04:36.292Z,29.14
2022-08-28T13:07:11.843Z,29.75
2022-08-28T13:09:48.611Z,30.40
2022-08-28T13:12:22.230Z,29.92
2022-08-28T13:15:00.307Z,29.77
2022-08-28T13:17:52.009Z,30.10
2022-08-28T13:20:29.464Z,29.50
2022-08-28T13:22:58.359Z,29.56
2022-08-28T13:25:29.996Z,29.42
2022-08-28T13:28:04.528Z,29.26
2022-08-28T13:30:35.447Z,29.48
2022-08-28T13:33:20.502Z,28.82
2022-08-28T13:35:48.777Z,28.74
2022-08-28T13:38:19.840Z,29.20
2022-08-28T13:40:59.815Z,28.89
2022-08-28T13:43:31.275Z,28.25
2022-08-28T13:45:59.478Z,27.61
2022-08-28T13:48:30.402Z,27.38
2022-08-28T13:51:05.029Z,28.31
2022-08-28T13:53:35.877Z,28.69
2022-08-28T13:56:05.052Z,28.20
2022-08-28T13:58:33.266Z,27.58
2022-08-28T14:01:02.070Z,27.11
2022-08-28T14:03:38.184Z,26.76
2022-08-28T14:06:11.896Z,26.52
2022-08-28T14:08:41.604Z,26.38
2022-08-28T14:11:12.435Z,26.92
2022-08-28T14:13:47.264Z,28.19
2022-08-28T14:16:24.811Z,28.45
2022-08-28T14:18:54.850Z,27.83
2022-08-28T14:21:24.431Z,27.07
2022-08-28T14:23:52.786Z,26.74
2022-08-28T14:26:20.910Z,26.74
2022-08-28T14:28:49.001Z,26.81
2022-08-28T14:31:17.270Z,26.69
2022-08-28T14:33:46.006Z,26.36
2022-08-28T14:36:18.102Z,25.99
2022-08-28T14:38:46.268Z,25.74
2022-08-28T14:41:15.262Z,25.42
2022-08-28T14:43:43.827Z,25.17
2022-08-28T14:46:16.772Z,25.09
2022-08-28T14:48:45.033Z,25.14
2022-08-28T14:51:13.421Z,25.53
2022-08-28T14:53:42.907Z,25.68
2022-08-28T14:56:12.393Z,25.51
2022-08-28T14:58:40.582Z,25.36
2022-08-28T15:01:08.808Z,25.35
2022-08-28T15:03:38.066Z,25.94
2022-08-28T15:06:10.254Z,26.35
2022-08-28T15:08:39.829Z,26.34
2022-08-28T15:11:14.293Z,26.12
2022-08-28T15:13:48.771Z,25.85
2022-08-28T15:16:20.096Z,25.67
2022-08-28T15:18:49.210Z,25.43
2022-08-28T15:21:18.743Z,25.22
2022-08-28T15:23:47.119Z,25.00
2022-08-28T15:26:16.541Z,24.70
2022-08-28T15:28:44.718Z,24.48
2022-08-28T15:31:13.211Z,24.31
2022-08-28T15:33:45.227Z,24.10
2022-08-28T15:36:13.946Z,23.92
2022-08-28T15:38:59.831Z,23.70
2022-08-28T15:41:30.509Z,23.52
2022-08-28T15:44:01.589Z,23.40
2022-08-28T15:46:33.526Z,23.38
2022-08-28T15:49:02.557Z,23.75
2022-08-28T15:51:32.271Z,25.49
2022-08-28T15:54:01.744Z,25.92
2022-08-28T15:56:31.323Z,25.26
2022-08-28T15:58:59.432Z,24.95
2022-08-28T16:01:27.680Z,26.35
2022-08-28T16:03:55.917Z,27.90
2022-08-28T16:06:24.238Z,27.64
2022-08-28T16:08:52.353Z,26.75
2022-08-28T16:11:23.020Z,25.79
2022-08-28T16:13:53.887Z,25.03
2022-08-28T16:16:22.630Z,24.86
2022-08-28T16:18:50.882Z,26.19
2022-08-28T16:21:19.846Z,25.91
2022-08-28T16:23:48.147Z,25.06
2022-08-28T16:26:16.715Z,24.30
2022-08-28T16:28:45.691Z,23.78
2022-08-28T16:31:19.114Z,23.69
2022-08-28T16:33:49.710Z,23.53
2022-08-28T16:36:19.475Z,23.34
2022-08-28T16:38:52.895Z,24.56
2022-08-28T16:41:29.220Z,25.96
2022-08-28T16:44:00.846Z,27.32
2022-08-28T16:46:30.772Z,28.68
2022-08-28T16:48:59.583Z,29.63
2022-08-28T16:51:29.407Z,30.26
2022-08-28T16:53:58.346Z,30.75
2022-08-28T16:56:26.721Z,31.05
2022-08-28T16:58:55.211Z,31.27
2022-08-28T17:01:24.537Z,31.51
2022-08-28T17:03:55.339Z,31.51
2022-08-28T17:06:27.043Z,31.54
2022-08-28T17:08:57.113Z,31.31
2022-08-28T17:11:27.646Z,31.32
2022-08-28T17:13:56.374Z,31.14
2022-08-28T17:16:26.702Z,30.65
2022-08-28T17:18:56.240Z,28.92
2022-08-28T17:21:42.443Z,27.40
2022-08-28T17:24:12.818Z,26.15
2022-08-28T17:26:42.405Z,25.32
2022-08-28T17:29:11.259Z,24.76
2022-08-28T17:31:39.695Z,24.29
2022-08-28T17:34:10.350Z,23.89
2022-08-28T17:36:42.113Z,23.48
2022-08-28T17:39:13.998Z,23.13
2022-08-28T17:41:42.554Z,22.83
2022-08-28T17:44:10.746Z,22.63
2022-08-28T17:46:39.540Z,22.39
2022-08-28T17:49:09.962Z,22.14
2022-08-28T17:51:43.617Z,21.97
2022-08-28T17:54:13.574Z,21.88
2022-08-28T17:56:41.933Z,21.79
2022-08-28T17:59:10.266Z,21.65
2022-08-28T18:01:39.012Z,21.51
2022-08-28T18:04:08.993Z,21.40
2022-08-28T18:06:37.458Z,21.31
2022-08-28T18:09:06.567Z,21.21
2022-08-28T18:11:35.482Z,21.13
2022-08-28T18:14:04.380Z,21.04
2022-08-28T18:16:33.764Z,20.95
2022-08-28T18:19:02.966Z,20.85
2022-08-28T18:21:32.643Z,20.76
2022-08-28T18:24:00.819Z,20.70
2022-08-28T18:26:29.434Z,20.67
2022-08-28T18:28:58.053Z,20.59
2022-08-28T18:31:26.649Z,20.49
2022-08-28T18:33:55.202Z,20.42
2022-08-28T18:36:24.173Z,20.38
2022-08-28T18:38:53.942Z,20.35
2022-08-28T18:41:26.971Z,20.34
2022-08-28T18:44:10.791Z,20.28
2022-08-28T18:46:38.997Z,20.23
2022-08-28T18:49:07.345Z,20.18
2022-08-28T18:51:35.635Z,20.16
2022-08-28T18:54:05.473Z,20.12
2022-08-28T18:56:36.044Z,20.10
2022-08-28T18:59:05.835Z,20.09
2022-08-28T19:01:34.122Z,20.05
2022-08-28T19:04:02.490Z,20.03
2022-08-28T19:06:30.652Z,20.02
2022-08-28T19:08:58.847Z,20.00
2022-08-28T19:11:31.290Z,19.97
2022-08-28T19:13:59.608Z,19.96
2022-08-28T19:16:33.437Z,19.90
2022-08-28T19:19:02.763Z,19.85
2022-08-28T19:21:31.201Z,19.79
2022-08-28T19:23:59.329Z,19.72
2022-08-28T19:26:29.596Z,19.67
2022-08-28T19:28:58.402Z,19.68
2022-08-28T19:31:28.118Z,19.69
2022-08-28T19:33:57.228Z,19.68
2022-08-28T19:36:27.090Z,19.69
2022-08-28T19:38:55.386Z,19.68
2022-08-28T19:41:24.245Z,19.66
2022-08-28T19:43:53.767Z,19.65
2022-08-28T19:46:22.278Z,19.62
2022-08-28T19:48:51.371Z,19.61
2022-08-28T19:51:22.928Z,19.60
2022-08-28T19:53:57.744Z,19.59
2022-08-28T19:56:28.057Z,19.60
2022-08-28T19:59:00.472Z,19.58
2022-08-28T20:01:30.432Z,19.56
2022-08-28T20:04:00.477Z,19.56
2022-08-28T20:06:31.831Z,19.55
2022-08-28T20:09:00.522Z,19.52
2022-08-28T20:11:30.364Z,19.51
2022-08-28T20:14:04.921Z,19.49
2022-08-28T20:16:35.706Z,19.46
2022-08-28T20:19:04.683Z,19.44
2022-08-28T20:21:37.768Z,19.43
2022-08-28T20:24:08.300Z,19.43
2022-08-28T20:26:36.683Z,19.42
2022-08-28T20:29:09.044Z,19.40
2022-08-28T20:31:40.325Z,19.38
2022-08-28T20:34:09.083Z,19.35
2022-08-28T20:36:37.653Z,19.34
2022-08-28T20:39:07.215Z,19.33
2022-08-28T20:41:37.968Z,19.29
2022-08-28T20:44:09.270Z,19.29
2022-08-28T20:46:41.315Z,19.30
2022-08-28T20:49:11.006Z,19.30
2022-08-28T20:51:56.518Z,19.27
2022-08-28T20:54:29.940Z,19.26
2022-08-28T20:57:01.811Z,19.23
2022-08-28T20:59:39.721Z,19.19
2022-08-28T21:02:11.231Z,19.16
2022-08-28T21:04:43.556Z,19.16
2022-08-28T21:07:12.798Z,19.15
2022-08-28T21:10:05.980Z,19.14
2022-08-28T21:12:29.686Z,19.12
2022-08-28T21:14:59.701Z,19.14
2022-08-28T21:17:29.891Z,19.12
2022-08-28T21:20:00.930Z,19.11
2022-08-28T21:22:31.701Z,19.09
2022-08-28T21:25:00.007Z,19.04
2022-08-28T21:27:28.384Z,18.98
2022-08-28T21:29:59.202Z,18.91
2022-08-28T21:32:28.319Z,18.83
2022-08-28T21:34:56.728Z,18.74
2022-08-28T21:37:25.221Z,18.69
2022-08-28T21:39:53.825Z,18.65
2022-08-28T21:42:25.033Z,18.64
2022-08-28T21:44:54.449Z,18.65
2022-08-28T21:47:25.211Z,18.67
2022-08-28T21:49:55.580Z,18.71
2022-08-28T21:52:28.773Z,18.74
2022-08-28T21:55:01.724Z,18.76
2022-08-28T21:57:31.018Z,18.75
2022-08-28T21:59:59.910Z,18.68
2022-08-28T22:02:29.926Z,18.61
2022-08-28T22:04:58.141Z,18.53
2022-08-28T22:07:26.314Z,18.50
2022-08-28T22:09:54.507Z,18.48
2022-08-28T22:12:24.595Z,18.45
2022-08-28T22:14:52.734Z,18.45
2022-08-28T22:17:21.302Z,18.48
2022-08-28T22:19:51.250Z,18.49
2022-08-28T22:22:36.895Z,18.51
2022-08-28T22:25:06.159Z,18.52
2022-08-28T22:27:34.615Z,18.55
2022-08-28T22:30:02.865Z,18.58
2022-08-28T22:32:31.005Z,18.58
2022-08-28T22:35:00.455Z,18.59
2022-08-28T22:37:28.644Z,18.62
2022-08-28T22:39:58.063Z,18.65
2022-08-28T22:42:26.541Z,18.68
2022-08-28T22:44:54.798Z,18.71
2022-08-28T22:47:23.307Z,18.72
2022-08-28T22:49:51.378Z,18.75
2022-08-28T22:52:21.079Z,18.76
2022-08-28T22:54:53.124Z,18.74
2022-08-28T22:57:21.723Z,18.73
2022-08-28T22:59:50.402Z,18.70
2022-08-28T23:02:21.629Z,18.68
2022-08-28T23:04:55.266Z,18.66
2022-08-28T23:07:24.720Z,18.68
2022-08-28T23:09:53.130Z,18.68
2022-08-28T23:12:21.452Z,18.69
2022-08-28T23:14:49.739Z,18.69
2022-08-28T23:17:18.707Z,18.71
2022-08-28T23:19:48.230Z,18.72
2022-08-28T23:22:17.483Z,18.72
2022-08-28T23:24:48.615Z,18.70
2022-08-28T23:27:35.865Z,18.72
2022-08-28T23:30:07.946Z,18.70
2022-08-28T23:32:36.061Z,18.71
2022-08-28T23:35:07.312Z,18.72
2022-08-28T23:37:37.512Z,18.72
2022-08-28T23:40:11.600Z,18.73
2022-08-28T23:42:40.669Z,18.72
2022-08-28T23:45:10.258Z,18.74
2022-08-28T23:47:40.191Z,18.74
2022-08-28T23:50:14.987Z,18.73
2022-08-28T23:52:44.277Z,18.71
2022-08-28T23:55:16.298Z,18.72
2022-08-28T23:57:45.816Z,18.72
